Time;durP1;ratioP1;P1;durP2;ratioP2;P2;SDS_P1;SDS_P2;PMS_P1;PMS_P2;Temp;Humidity;BMP_temperature;BMP_pressure;BME280_temperature;BME280_humidity;BME280_pressure;Samples;Min_cycle;Max_cycle;Signal;HPM_P1;HPM_P2
2021/04/10 00:01:39;;;;;;;2.08;1.38;;;22.80;28.50;;;;;;5044447;28;20025;-53
2021/04/10 00:04:06;;;;;;;1.85;1.23;;;22.80;28.50;;;;;;5041012;28;20099;-56
2021/04/10 00:06:32;;;;;;;2.05;1.27;;;22.80;28.50;;;;;;5042793;28;20029;-52
2021/04/10 00:08:59;;;;;;;1.73;1.05;;;22.80;28.50;;;;;;5041412;28;20079;-55
2021/04/10 00:11:26;;;;;;;2.25;1.20;;;22.70;28.50;;;;;;5042200;28;20032;-55
2021/04/10 00:13:51;;;;;;;3.53;1.30;;;22.80;28.50;;;;;;5042787;28;20340;-55
2021/04/10 00:16:17;;;;;;;2.75;1.30;;;22.70;28.50;;;;;;5041877;28;20032;-59
2021/04/10 00:18:43;;;;;;;1.80;1.10;;;22.70;28.50;;;;;;5043571;28;20167;-57
2021/04/10 00:21:09;;;;;;;2.75;1.20;;;22.80;28.50;;;;;;5043120;28;20411;-56
2021/04/10 00:23:34;;;;;;;2.83;1.08;;;22.70;28.50;;;;;;5044405;28;20029;-54
2021/04/10 00:26:01;;;;;;;2.90;1.40;;;22.70;28.50;;;;;;5049058;28;20586;-56
2021/04/10 00:28:26;;;;;;;1.73;1.20;;;22.70;28.50;;;;;;5046392;28;20041;-53
2021/04/10 00:31:06;;;;;;;2.58;1.30;;;22.70;28.50;;;;;;5042355;28;20024;-52
2021/04/10 00:33:34;;;;;;;1.35;0.85;;;22.70;28.50;;;;;;5043042;28;20029;-53
2021/04/10 00:36:00;;;;;;;2.75;1.13;;;22.70;28.50;;;;;;5047788;28;20033;-54
2021/04/10 00:38:29;;;;;;;2.47;1.20;;;22.70;28.50;;;;;;5042410;28;20432;-54
2021/04/10 00:40:55;;;;;;;2.22;1.20;;;22.70;28.50;;;;;;5046162;28;20037;-57
2021/04/10 00:43:21;;;;;;;1.48;1.05;;;22.70;28.50;;;;;;5025714;28;20530;-56
2021/04/10 00:45:47;;;;;;;2.63;1.35;;;22.70;28.50;;;;;;5042135;28;20020;-51
2021/04/10 00:48:13;;;;;;;2.20;1.15;;;22.70;28.50;;;;;;5040248;28;20189;-55
2021/04/10 00:50:38;;;;;;;1.58;0.95;;;22.70;28.50;;;;;;5020415;28;20082;-57
2021/04/10 00:53:04;;;;;;;2.00;1.10;;;22.70;28.50;;;;;;5044124;28;20051;-51
2021/04/10 00:55:30;;;;;;;1.75;1.15;;;22.70;28.50;;;;;;5045072;28;20047;-50
2021/04/10 00:57:59;;;;;;;2.80;1.10;;;22.60;28.40;;;;;;5022974;28;20032;-53
2021/04/10 01:00:25;;;;;;;2.33;1.30;;;22.60;28.40;;;;;;5041198;28;20143;-55
2021/04/10 01:02:51;;;;;;;1.88;1.20;;;22.60;28.40;;;;;;5043433;28;20040;-53
2021/04/10 01:05:17;;;;;;;1.45;0.95;;;22.60;28.40;;;;;;5039609;28;20040;-54
2021/04/10 01:07:43;;;;;;;2.17;1.00;;;22.60;28.40;;;;;;5050170;28;20020;-53
2021/04/10 01:10:09;;;;;;;2.15;0.98;;;22.60;28.40;;;;;;5023307;28;20124;-49
2021/04/10 01:13:12;;;;;;;2.28;1.10;;;22.60;28.40;;;;;;5043209;28;20466;-57
2021/04/10 01:16:05;;;;;;;1.65;0.85;;;22.60;28.40;;;;;;5023830;28;20037;-57
2021/04/10 01:19:03;;;;;;;2.22;0.85;;;22.60;28.40;;;;;;5022718;28;20028;-56
2021/04/10 01:21:38;;;;;;;1.67;1.05;;;22.60;28.40;;;;;;4956420;28;20476;-56
2021/04/10 01:24:10;;;;;;;2.10;0.95;;;22.60;28.40;;;;;;5046291;28;20029;-52
2021/04/10 01:26:53;;;;;;;2.17;1.02;;;22.60;28.40;;;;;;5023922;28;20075;-54
2021/04/10 01:29:21;;;;;;;2.10;0.98;;;22.50;28.40;;;;;;5045819;28;20033;-55
2021/04/10 01:31:50;;;;;;;0.90;0.73;;;22.50;28.40;;;;;;5025519;28;20041;-56
2021/04/10 01:34:32;;;;;;;1.52;0.80;;;22.50;28.40;;;;;;5043400;28;20409;-55
2021/04/10 01:37:10;;;;;;;1.65;1.00;;;22.60;28.40;;;;;;5025255;28;20116;-56
2021/04/10 01:39:38;;;;;;;1.10;0.70;;;22.50;28.40;;;;;;5020630;28;20364;-58
2021/04/10 01:42:07;;;;;;;1.65;1.00;;;22.50;28.40;;;;;;5028214;28;20049;-54
2021/04/10 01:44:36;;;;;;;1.75;1.00;;;22.50;28.40;;;;;;5040384;28;20056;-47
2021/04/10 01:47:03;;;;;;;2.97;0.93;;;22.50;28.40;;;;;;5024831;28;20034;-51
2021/04/10 01:49:30;;;;;;;1.98;0.98;;;22.50;28.40;;;;;;5024191;28;20071;-56
2021/04/10 01:51:58;;;;;;;1.85;0.93;;;22.50;28.40;;;;;;5022333;28;20555;-54
2021/04/10 01:54:25;;;;;;;1.35;0.93;;;22.50;28.40;;;;;;5023775;28;20049;-54
2021/04/10 01:56:53;;;;;;;2.72;1.10;;;22.50;28.40;;;;;;5021289;28;20108;-55
2021/04/10 01:59:25;;;;;;;2.78;1.20;;;22.50;28.40;;;;;;5041053;28;20021;-53
2021/04/10 02:01:55;;;;;;;1.00;0.63;;;22.50;28.50;;;;;;5020288;28;20464;-56
2021/04/10 02:04:34;;;;;;;1.30;0.70;;;22.40;28.40;;;;;;5019625;28;20098;-54
2021/04/10 02:07:02;;;;;;;1.77;0.80;;;22.40;28.40;;;;;;5028517;28;20061;-52
2021/04/10 02:09:31;;;;;;;2.28;0.80;;;22.50;28.50;;;;;;5021594;28;20057;-55
2021/04/10 02:12:16;;;;;;;;;;;22.50;28.50;;;;;;5023892;28;20395;-55
2021/04/10 02:14:52;;;;;;;1.77;0.70;;;22.40;28.40;;;;;;5024562;28;20244;-57
2021/04/10 02:17:19;;;;;;;2.60;0.90;;;22.40;28.40;;;;;;5023300;28;20060;-55
2021/04/10 02:19:52;;;;;;;1.85;0.80;;;22.40;28.40;;;;;;5021769;28;20029;-57
2021/04/10 02:22:20;;;;;;;1.35;0.70;;;22.40;28.40;;;;;;5022514;28;20344;-53
2021/04/10 02:24:46;;;;;;;1.80;0.90;;;22.40;28.50;;;;;;5020332;28;20029;-52
2021/04/10 02:27:12;;;;;;;1.83;0.90;;;22.40;28.50;;;;;;5046902;28;20041;-56
2021/04/10 02:29:51;;;;;;;2.00;0.85;;;22.40;28.50;;;;;;5040183;28;20410;-52
2021/04/10 02:32:42;;;;;;;1.77;0.80;;;22.40;28.50;;;;;;5023330;28;20029;-53
2021/04/10 02:35:25;;;;;;;2.67;0.98;;;22.40;28.50;;;;;;5042087;28;20033;-57
2021/04/10 02:37:53;;;;;;;0.90;0.70;;;22.40;28.50;;;;;;5022036;28;20116;-51
2021/04/10 02:40:21;;;;;;;1.10;0.60;;;22.40;28.50;;;;;;5025136;28;20341;-52
2021/04/10 02:42:48;;;;;;;2.10;0.80;;;22.40;28.50;;;;;;5045473;28;20082;-56
2021/04/10 02:45:26;;;;;;;1.02;0.63;;;22.40;28.50;;;;;;5024669;28;20017;-56
2021/04/10 02:48:01;;;;;;;1.83;0.90;;;22.40;28.50;;;;;;5043593;28;20055;-53
2021/04/10 02:50:30;;;;;;;1.93;0.90;;;22.40;28.50;;;;;;5020034;28;20041;-54
2021/04/10 02:53:01;;;;;;;1.70;0.80;;;22.40;28.50;;;;;;5040851;28;20298;-52
2021/04/10 02:55:31;;;;;;;1.00;0.60;;;22.40;28.50;;;;;;5041594;28;20079;-54
2021/04/10 02:58:04;;;;;;;1.80;0.80;;;22.40;28.50;;;;;;5022182;28;20025;-54
2021/04/10 03:00:31;;;;;;;1.80;0.90;;;22.40;28.50;;;;;;5019652;28;20334;-56
2021/04/10 03:02:58;;;;;;;1.73;0.75;;;22.30;28.50;;;;;;5041015;28;20135;-54
2021/04/10 03:05:26;;;;;;;1.40;0.65;;;22.30;28.50;;;;;;5040440;28;20036;-51
2021/04/10 03:07:52;;;;;;;1.52;0.55;;;22.30;28.50;;;;;;5043540;28;20036;-53
2021/04/10 03:10:24;;;;;;;1.55;0.77;;;22.30;28.50;;;;;;5041918;28;20090;-52
2021/04/10 03:12:53;;;;;;;1.58;0.80;;;22.30;28.50;;;;;;5042764;28;20094;-53
2021/04/10 03:15:20;;;;;;;1.58;0.73;;;22.30;28.50;;;;;;5024643;28;20029;-56
2021/04/10 03:17:50;;;;;;;1.67;0.70;;;22.30;28.50;;;;;;5044935;28;20021;-55
2021/04/10 03:20:17;;;;;;;1.45;0.80;;;22.30;28.50;;;;;;5042899;28;20352;-57
2021/04/10 03:22:46;;;;;;;1.73;0.85;;;22.30;28.50;;;;;;5025272;28;20045;-55
2021/04/10 03:25:17;;;;;;;1.88;0.82;;;22.30;28.50;;;;;;5025916;28;20044;-58
2021/04/10 03:27:45;;;;;;;1.67;0.70;;;22.30;28.50;;;;;;5027047;28;20021;-54
2021/04/10 03:30:13;;;;;;;1.67;0.75;;;22.30;28.50;;;;;;5023992;28;20067;-55
2021/04/10 03:32:46;;;;;;;1.65;0.80;;;22.30;28.50;;;;;;5032588;28;20048;-58
2021/04/10 03:35:13;;;;;;;2.08;0.90;;;22.30;28.50;;;;;;5022421;28;20029;-57
2021/04/10 03:37:39;;;;;;;1.38;0.70;;;22.30;28.50;;;;;;5026639;28;20091;-56
2021/04/10 03:40:10;;;;;;;1.45;0.60;;;22.30;28.50;;;;;;5014548;28;20017;-55
2021/04/10 03:42:39;;;;;;;1.63;0.70;;;22.30;28.50;;;;;;5025162;28;20021;-56
2021/04/10 03:45:13;;;;;;;1.33;0.70;;;22.30;28.50;;;;;;5023248;28;20120;-52
2021/04/10 03:47:39;;;;;;;1.35;0.63;;;22.30;28.50;;;;;;5045488;28;20064;-54
2021/04/10 03:50:07;;;;;;;1.73;0.90;;;22.30;28.50;;;;;;5022128;28;20028;-54
2021/04/10 03:52:34;;;;;;;1.42;0.80;;;22.30;28.50;;;;;;5045015;28;20322;-56
2021/04/10 03:55:01;;;;;;;1.23;0.70;;;22.20;28.50;;;;;;5021210;28;20368;-54
2021/04/10 03:57:29;;;;;;;1.63;0.80;;;22.20;28.50;;;;;;5032727;28;20025;-56
2021/04/10 03:59:55;;;;;;;1.40;0.70;;;22.20;28.50;;;;;;5025169;28;20361;-52
2021/04/10 04:02:29;;;;;;;1.38;0.63;;;22.20;28.50;;;;;;5050020;28;20033;-53
2021/04/10 04:04:55;;;;;;;1.35;0.70;;;22.20;28.50;;;;;;5022855;28;20060;-53
2021/04/10 04:07:21;;;;;;;1.80;0.77;;;22.20;28.50;;;;;;5040238;28;20455;-57
2021/04/10 04:09:46;;;;;;;1.55;0.70;;;22.20;28.50;;;;;;5042998;28;20096;-55
2021/04/10 04:12:12;;;;;;;2.08;0.80;;;22.20;28.50;;;;;;5046074;28;20069;-59
2021/04/10 04:14:38;;;;;;;1.45;0.52;;;22.20;28.50;;;;;;5044981;28;20408;-55
2021/04/10 04:17:06;;;;;;;2.08;1.02;;;22.20;28.50;;;;;;5044998;28;20044;-54
2021/04/10 04:19:35;;;;;;;1.45;0.80;;;22.20;28.50;;;;;;5026351;28;20045;-58
2021/04/10 04:22:03;;;;;;;1.55;1.00;;;22.20;28.50;;;;;;5046493;28;20028;-52
2021/04/10 04:24:29;;;;;;;1.40;0.80;;;22.20;28.60;;;;;;5042836;28;20037;-51
2021/04/10 04:26:55;;;;;;;1.23;0.60;;;22.20;28.60;;;;;;5022650;28;20029;-51
2021/04/10 04:29:21;;;;;;;1.63;0.82;;;22.20;28.60;;;;;;5042236;28;20053;-50
2021/04/10 04:31:47;;;;;;;1.55;0.80;;;22.20;28.60;;;;;;5028616;28;20033;-53
2021/04/10 04:34:13;;;;;;;1.88;0.80;;;22.10;28.60;;;;;;5042752;28;20102;-58
2021/04/10 04:36:38;;;;;;;1.73;0.80;;;22.20;28.60;;;;;;5042151;28;20037;-54
2021/04/10 04:39:05;;;;;;;1.77;0.55;;;22.20;28.60;;;;;;5043106;28;20028;-52
2021/04/10 04:41:30;;;;;;;1.83;0.80;;;22.10;28.60;;;;;;5046707;28;20086;-53
2021/04/10 04:43:56;;;;;;;1.48;0.80;;;22.10;28.60;;;;;;5024337;28;20071;-57
2021/04/10 04:46:22;;;;;;;2.05;0.93;;;22.10;28.60;;;;;;5042835;28;20032;-47
2021/04/10 04:48:48;;;;;;;3.47;1.17;;;22.10;28.60;;;;;;5045241;28;20375;-56
2021/04/10 04:51:13;;;;;;;1.70;0.80;;;22.10;28.60;;;;;;5042553;28;20044;-52
2021/04/10 04:53:39;;;;;;;2.35;0.90;;;22.10;28.60;;;;;;5042333;28;20028;-52
2021/04/10 04:56:05;;;;;;;2.40;1.00;;;22.10;28.60;;;;;;5046167;28;20032;-53
2021/04/10 04:58:31;;;;;;;1.65;0.70;;;22.10;28.60;;;;;;5046928;28;20037;-57
2021/04/10 05:00:57;;;;;;;1.88;0.80;;;22.10;28.60;;;;;;5046103;28;20121;-55
2021/04/10 05:03:22;;;;;;;1.55;0.80;;;22.10;28.60;;;;;;5039781;28;20385;-56
2021/04/10 05:05:48;;;;;;;1.85;0.90;;;22.10;28.60;;;;;;5040701;28;20029;-52
2021/04/10 05:08:14;;;;;;;1.67;0.80;;;22.10;28.60;;;;;;5043141;28;20179;-55
2021/04/10 05:10:39;;;;;;;1.23;0.50;;;22.10;28.60;;;;;;5041566;28;20368;-55
2021/04/10 05:13:05;;;;;;;1.25;0.70;;;22.10;28.60;;;;;;5020495;28;20033;-52
2021/04/10 05:15:33;;;;;;;1.25;0.70;;;22.00;28.50;;;;;;5042656;28;20025;-52
2021/04/10 05:17:59;;;;;;;1.20;0.52;;;22.00;28.50;;;;;;5040898;28;20033;-53
2021/04/10 05:20:24;;;;;;;2.20;0.90;;;22.00;28.60;;;;;;5043103;28;20047;-54
2021/04/10 05:22:54;;;;;;;1.33;0.70;;;22.10;28.60;;;;;;5042436;28;20122;-53
2021/04/10 05:25:20;;;;;;;2.55;0.90;;;22.00;28.50;;;;;;5021166;28;20417;-50
2021/04/10 05:27:48;;;;;;;1.33;0.70;;;22.10;28.60;;;;;;5044085;28;20067;-53
2021/04/10 05:30:14;;;;;;;1.55;0.70;;;22.00;28.60;;;;;;5044376;28;20052;-57
2021/04/10 05:32:40;;;;;;;1.90;0.90;;;22.00;28.60;;;;;;5042573;28;20087;-52
2021/04/10 05:35:06;;;;;;;1.42;0.70;;;22.00;28.60;;;;;;5041895;28;20066;-54
2021/04/10 05:37:32;;;;;;;1.85;0.80;;;22.10;28.60;;;;;;5041292;28;20017;-52
2021/04/10 05:39:57;;;;;;;2.60;1.10;;;22.10;28.60;;;;;;5043067;28;20040;-57
2021/04/10 05:42:23;;;;;;;1.42;0.63;;;22.00;28.50;;;;;;5041484;28;20495;-54
2021/04/10 05:44:49;;;;;;;1.08;0.60;;;22.10;28.60;;;;;;5040854;28;20048;-52
2021/04/10 05:47:14;;;;;;;0.85;0.60;;;22.00;28.50;;;;;;5012693;28;20049;-54
2021/04/10 05:49:40;;;;;;;2.08;0.80;;;22.00;28.50;;;;;;5002281;28;20245;-57
2021/04/10 05:52:06;;;;;;;1.10;0.70;;;22.00;28.50;;;;;;5002988;28;20164;-55
2021/04/10 05:54:32;;;;;;;2.67;0.60;;;22.00;28.50;;;;;;5004986;28;20036;-53
2021/04/10 05:56:59;;;;;;;2.33;0.75;;;22.00;28.50;;;;;;4992142;28;20042;-52
2021/04/10 05:59:24;;;;;;;1.88;0.82;;;22.00;28.50;;;;;;5003173;28;20030;-52
2021/04/10 06:01:50;;;;;;;1.27;0.77;;;22.00;28.50;;;;;;5003139;28;20045;-57
2021/04/10 06:04:16;;;;;;;1.67;0.85;;;22.00;28.50;;;;;;5001638;28;20036;-55
2021/04/10 06:06:42;;;;;;;1.55;0.55;;;22.00;28.40;;;;;;5001775;28;20042;-55
2021/04/10 06:09:07;;;;;;;2.35;0.70;;;22.00;28.40;;;;;;5002622;28;20044;-55
2021/04/10 06:11:33;;;;;;;1.60;0.60;;;22.00;28.40;;;;;;5000678;28;20029;-56
2021/04/10 06:13:59;;;;;;;1.95;0.75;;;22.00;28.40;;;;;;5001328;28;20046;-53
2021/04/10 06:16:25;;;;;;;1.67;0.60;;;22.00;28.40;;;;;;5007670;28;20026;-53
2021/04/10 06:18:50;;;;;;;1.67;0.68;;;22.00;28.40;;;;;;5000894;28;20122;-55
2021/04/10 06:21:16;;;;;;;1.75;0.68;;;22.00;28.40;;;;;;5003307;28;20105;-49
2021/04/10 06:23:43;;;;;;;2.10;0.70;;;22.00;28.40;;;;;;5004663;28;20037;-50
2021/04/10 06:26:09;;;;;;;1.98;0.88;;;22.00;28.40;;;;;;5002254;28;20121;-55
2021/04/10 06:28:35;;;;;;;1.75;0.60;;;22.00;28.40;;;;;;4999768;28;20450;-57
2021/04/10 06:31:01;;;;;;;1.35;0.55;;;22.00;28.40;;;;;;4999232;28;20085;-54
2021/04/10 06:33:27;;;;;;;1.58;0.82;;;22.00;28.40;;;;;;5005354;28;20018;-52
2021/04/10 06:35:53;;;;;;;1.63;0.70;;;22.00;28.40;;;;;;5001303;28;20018;-50
2021/04/10 06:38:19;;;;;;;1.67;0.60;;;22.00;28.40;;;;;;4999653;28;20093;-51
2021/04/10 06:40:45;;;;;;;1.50;0.70;;;22.00;28.40;;;;;;4998487;28;20074;-53
2021/04/10 06:43:11;;;;;;;1.70;0.80;;;22.00;28.40;;;;;;5007659;28;20528;-53
2021/04/10 06:45:37;;;;;;;2.08;0.73;;;22.00;28.40;;;;;;5003249;28;20398;-55
2021/04/10 06:48:04;;;;;;;2.72;0.70;;;22.00;28.50;;;;;;5028422;28;20617;-54
2021/04/10 06:50:30;;;;;;;1.25;0.50;;;22.00;28.40;;;;;;5045504;28;20056;-53
2021/04/10 06:52:57;;;;;;;1.38;0.55;;;22.00;28.40;;;;;;5046645;28;20039;-53
2021/04/10 06:55:24;;;;;;;1.40;0.47;;;22.00;28.40;;;;;;5042594;28;20551;-57
2021/04/10 06:58:08;;;;;;;2.53;0.70;;;22.00;28.40;;;;;;5029353;28;20047;-53
2021/04/10 07:00:34;;;;;;;1.40;0.60;;;22.00;28.40;;;;;;5045695;28;20033;-54
2021/04/10 07:03:03;;;;;;;1.48;0.77;;;22.00;28.40;;;;;;5026732;28;20416;-53
2021/04/10 07:05:30;;;;;;;1.48;0.75;;;22.00;28.60;;;;;;5043289;28;20029;-54
2021/04/10 07:07:56;;;;;;;1.65;0.80;;;22.00;28.60;;;;;;5043645;28;20359;-54
2021/04/10 07:10:22;;;;;;;1.63;0.50;;;22.00;28.60;;;;;;5050707;28;20090;-50
2021/04/10 07:12:48;;;;;;;1.77;0.70;;;22.00;28.60;;;;;;5042405;28;20029;-53
2021/04/10 07:15:16;;;;;;;1.35;0.60;;;22.00;28.60;;;;;;5045524;28;20048;-49
2021/04/10 07:17:42;;;;;;;2.28;0.70;;;22.10;28.60;;;;;;5043297;28;20463;-54
2021/04/10 07:20:26;;;;;;;2.30;0.77;;;22.20;28.60;;;;;;5044789;28;20057;-52
2021/04/10 07:22:56;;;;;;;1.10;0.52;;;22.30;28.50;;;;;;5022438;28;20065;-56
2021/04/10 07:25:24;;;;;;;1.45;0.60;;;22.40;28.40;;;;;;5027378;28;20029;-51
2021/04/10 07:27:51;;;;;;;1.65;0.70;;;22.50;28.40;;;;;;5042009;28;20095;-54
2021/04/10 07:30:17;;;;;;;2.78;0.80;;;22.60;28.30;;;;;;5044374;28;20451;-55
2021/04/10 07:32:42;;;;;;;3.13;0.88;;;22.70;28.30;;;;;;5044145;28;20053;-57
2021/04/10 07:35:13;;;;;;;2.15;0.55;;;22.70;28.20;;;;;;5043427;28;20052;-58
2021/04/10 07:37:43;;;;;;;0.90;0.55;;;22.80;28.10;;;;;;5043580;28;20024;-54
2021/04/10 07:40:17;;;;;;;1.65;0.55;;;22.90;28.10;;;;;;5043605;28;20037;-55
2021/04/10 07:42:45;;;;;;;1.45;0.50;;;23.00;28.00;;;;;;5043816;28;20079;-55
2021/04/10 07:45:35;;;;;;;2.00;0.80;;;23.00;28.00;;;;;;5046549;28;20033;-52
2021/04/10 07:48:05;;;;;;;0.77;0.50;;;23.20;27.90;;;;;;5039075;28;20045;-57
2021/04/10 07:50:33;;;;;;;1.50;0.60;;;23.20;27.80;;;;;;5042894;28;20041;-51
2021/04/10 07:53:18;;;;;;;1.23;0.55;;;23.30;27.80;;;;;;5046208;28;20283;-54
2021/04/10 07:55:43;;;;;;;1.20;0.60;;;23.30;27.70;;;;;;5043559;28;20024;-55
2021/04/10 07:58:31;;;;;;;1.02;0.60;;;23.40;27.70;;;;;;5042542;28;20039;-59
2021/04/10 08:01:08;;;;;;;1.00;0.55;;;23.40;27.60;;;;;;5040647;28;20039;-55
2021/04/10 08:03:50;;;;;;;1.95;0.70;;;23.50;27.60;;;;;;5043797;28;20064;-59
2021/04/10 08:06:20;;;;;;;2.63;0.50;;;23.50;27.60;;;;;;5026135;28;20022;-48
2021/04/10 08:08:51;;;;;;;1.17;0.75;;;23.50;27.50;;;;;;5045685;28;20107;-53
2021/04/10 08:11:29;;;;;;;2.03;0.95;;;23.50;27.50;;;;;;5048234;28;20108;-55
2021/04/10 08:14:01;;;;;;;1.88;0.65;;;23.60;27.50;;;;;;5047219;28;20040;-53
2021/04/10 08:16:27;;;;;;;1.70;0.70;;;23.60;27.50;;;;;;5044811;28;20041;-51
2021/04/10 08:19:00;;;;;;;1.63;0.52;;;23.60;27.50;;;;;;5046399;28;20047;-54
2021/04/10 08:21:32;;;;;;;1.67;0.60;;;23.60;27.60;;;;;;5027720;28;20097;-54
2021/04/10 08:24:07;;;;;;;2.95;0.82;;;23.60;27.60;;;;;;5046419;28;20108;-55
2021/04/10 08:26:33;;;;;;;1.70;0.57;;;23.60;28.10;;;;;;5049892;28;20025;-54
2021/04/10 08:29:00;;;;;;;1.10;0.57;;;23.70;27.70;;;;;;5029197;28;20276;-55
2021/04/10 08:31:26;;;;;;;1.20;0.55;;;23.70;27.80;;;;;;5046361;28;20439;-52
2021/04/10 08:33:51;;;;;;;1.70;0.63;;;23.70;27.80;;;;;;5046270;28;20032;-51
2021/04/10 08:36:18;;;;;;;0.95;0.45;;;23.70;27.90;;;;;;5041530;28;20029;-54
2021/04/10 08:38:44;;;;;;;1.83;0.60;;;23.70;27.90;;;;;;5044504;28;20116;-53
2021/04/10 08:41:12;;;;;;;1.23;0.63;;;23.70;28.00;;;;;;5043013;28;20127;-54
2021/04/10 08:43:59;;;;;;;1.52;0.57;;;23.70;28.00;;;;;;5043073;28;20021;-55
2021/04/10 08:46:26;;;;;;;2.47;0.70;;;23.80;28.10;;;;;;5043511;28;20356;-57
2021/04/10 08:48:57;;;;;;;1.38;0.50;;;23.80;28.10;;;;;;5041289;28;20080;-57
2021/04/10 08:51:27;;;;;;;1.10;0.50;;;23.90;28.20;;;;;;5044466;28;20033;-51
2021/04/10 08:53:54;;;;;;;1.27;0.47;;;23.90;28.20;;;;;;5046098;28;20055;-53
2021/04/10 08:56:23;;;;;;;1.52;0.70;;;23.90;28.20;;;;;;5043168;28;20039;-49
2021/04/10 08:58:49;;;;;;;1.60;0.68;;;23.90;28.20;;;;;;5045826;28;20108;-52
2021/04/10 09:01:23;;;;;;;1.75;0.68;;;23.90;28.20;;;;;;5046012;28;20108;-55
2021/04/10 09:03:53;;;;;;;1.48;0.70;;;23.90;28.30;;;;;;5043314;28;20029;-56
2021/04/10 09:06:28;;;;;;;1.98;0.80;;;23.80;28.30;;;;;;5041724;28;20403;-52
2021/04/10 09:09:14;;;;;;;2.35;0.70;;;23.80;28.30;;;;;;5038856;28;20297;-50
2021/04/10 09:11:43;;;;;;;1.95;0.80;;;23.80;28.40;;;;;;5024195;28;20026;-50
2021/04/10 09:14:08;;;;;;;2.20;0.80;;;23.70;28.60;;;;;;5022578;28;20037;-49
2021/04/10 09:16:47;;;;;;;1.73;0.60;;;23.70;28.70;;;;;;5043811;28;20064;-51
2021/04/10 09:19:15;;;;;;;2.05;0.70;;;23.70;28.80;;;;;;5041147;28;20033;-45
2021/04/10 09:21:52;;;;;;;1.20;0.60;;;23.70;28.80;;;;;;5043290;28;20029;-53
2021/04/10 09:24:30;;;;;;;1.17;0.50;;;23.70;28.80;;;;;;5039531;28;20436;-52
2021/04/10 09:26:59;;;;;;;1.35;0.75;;;23.70;28.80;;;;;;5042056;28;20032;-50
2021/04/10 09:29:26;;;;;;;1.27;0.55;;;23.70;28.80;;;;;;5040791;28;20451;-47
2021/04/10 09:31:57;;;;;;;2.42;0.68;;;23.70;28.80;;;;;;5040158;28;20124;-47
2021/04/10 09:34:51;;;;;;;1.92;0.80;;;23.60;28.80;;;;;;5040305;28;20378;-45
2021/04/10 09:37:19;;;;;;;2.47;0.70;;;23.60;28.90;;;;;;5040026;28;20040;-46
2021/04/10 09:40:06;;;;;;;2.60;0.70;;;23.60;29.10;;;;;;5041467;28;20029;-45
2021/04/10 09:42:37;;;;;;;2.30;1.00;;;23.50;29.40;;;;;;5041676;28;20087;-54
2021/04/10 09:45:45;;;;;;;1.38;0.70;;;23.50;29.60;;;;;;5027152;28;20033;-44
2021/04/10 09:48:15;;;;;;;1.58;0.70;;;23.50;29.80;;;;;;5043054;28;20380;-47
2021/04/10 09:50:44;;;;;;;1.90;0.80;;;23.40;30.00;;;;;;5026953;28;20029;-48
2021/04/10 09:53:20;;;;;;;4.55;0.90;;;23.40;30.10;;;;;;5041323;28;20057;-48
2021/04/10 09:55:48;;;;;;;1.52;0.80;;;23.40;30.20;;;;;;5042565;28;20444;-48
2021/04/10 09:58:14;;;;;;;2.22;0.82;;;23.40;30.30;;;;;;5043510;28;20047;-57
2021/04/10 10:00:42;;;;;;;2.30;0.68;;;23.40;30.40;;;;;;5043103;28;20045;-47
2021/04/10 10:03:10;;;;;;;4.93;0.43;;;23.40;30.40;;;;;;5042387;28;20340;-52
2021/04/10 10:05:38;;;;;;;3.90;0.70;;;23.40;30.50;;;;;;5042641;28;20029;-54
2021/04/10 10:08:06;;;;;;;1.65;0.88;;;23.40;30.60;;;;;;5039538;28;20355;-47
2021/04/10 10:10:39;;;;;;;1.55;0.60;;;23.40;30.60;;;;;;5040706;28;20045;-46
2021/04/10 10:13:07;;;;;;;2.27;0.70;;;23.40;30.50;;;;;;5043654;28;20034;-49
2021/04/10 10:15:34;;;;;;;2.20;0.75;;;23.40;30.50;;;;;;5043493;28;20033;-47
2021/04/10 10:18:20;;;;;;;2.25;0.90;;;23.30;30.40;;;;;;5023199;28;20235;-48
2021/04/10 10:21:01;;;;;;;4.22;0.88;;;23.30;30.50;;;;;;5043770;28;20136;-49
2021/04/10 10:23:32;;;;;;;2.40;0.95;;;23.40;30.40;;;;;;5042899;28;21033;-48
2021/04/10 10:26:08;;;;;;;2.10;0.80;;;23.40;30.20;;;;;;5041789;28;20037;-46
2021/04/10 10:28:37;;;;;;;3.47;1.00;;;23.40;30.20;;;;;;5047246;28;20055;-52
2021/04/10 10:31:05;;;;;;;3.30;1.02;;;23.30;30.20;;;;;;5027717;28;20025;-51
2021/04/10 10:33:34;;;;;;;1.63;1.00;;;23.30;30.40;;;;;;5046457;28;20065;-53
2021/04/10 10:36:01;;;;;;;2.20;0.88;;;23.40;30.50;;;;;;5046844;28;20136;-54
2021/04/10 10:38:34;;;;;;;1.85;0.80;;;23.40;30.50;;;;;;5028534;28;20055;-51
2021/04/10 10:41:01;;;;;;;2.17;0.85;;;23.40;30.60;;;;;;5028231;28;20033;-49
2021/04/10 10:43:27;;;;;;;3.15;0.90;;;23.40;30.70;;;;;;5027278;28;20021;-51
2021/04/10 10:45:58;;;;;;;3.17;1.02;;;23.40;30.70;;;;;;5047716;28;20044;-54
2021/04/10 10:48:26;;;;;;;2.28;0.93;;;23.40;30.70;;;;;;5044827;28;20041;-51
2021/04/10 10:50:54;;;;;;;4.45;1.08;;;23.40;30.60;;;;;;5044323;28;20083;-50
2021/04/10 10:53:23;;;;;;;2.00;0.93;;;23.50;30.70;;;;;;5042850;28;20463;-52
2021/04/10 10:56:18;;;;;;;3.67;1.27;;;23.50;30.70;;;;;;5043322;28;20045;-46
2021/04/10 10:58:50;;;;;;;2.38;1.00;;;23.50;30.60;;;;;;5044787;28;20033;-47
2021/04/10 11:01:31;;;;;;;3.42;1.15;;;23.50;30.70;;;;;;5011462;28;20037;-51
2021/04/10 11:04:10;;;;;;;2.42;1.00;;;23.50;30.70;;;;;;5046008;28;20057;-49
2021/04/10 11:06:48;;;;;;;2.90;1.08;;;23.50;30.70;;;;;;5049169;28;20067;-50
2021/04/10 11:09:28;;;;;;;2.42;0.93;;;23.50;30.70;;;;;;5041292;28;20087;-46
2021/04/10 11:12:06;;;;;;;2.53;0.90;;;23.50;30.60;;;;;;5047197;28;20021;-46
2021/04/10 11:14:34;;;;;;;1.42;0.70;;;23.40;30.50;;;;;;5045913;28;20033;-45
2021/04/10 11:17:03;;;;;;;2.20;0.90;;;23.40;30.50;;;;;;5048926;28;20025;-46
2021/04/10 11:19:31;;;;;;;1.90;0.80;;;23.50;30.40;;;;;;5047923;28;20045;-45
2021/04/10 11:22:02;;;;;;;1.85;0.88;;;23.50;30.30;;;;;;5044843;28;20115;-50
2021/04/10 11:24:49;;;;;;;1.67;0.60;;;23.50;30.20;;;;;;5047939;28;20029;-52
2021/04/10 11:27:15;;;;;;;2.22;0.73;;;23.50;30.10;;;;;;5026497;28;20057;-53
2021/04/10 11:29:56;;;;;;;1.63;0.80;;;23.50;30.10;;;;;;5051631;28;20118;-49
2021/04/10 11:32:26;;;;;;;1.42;0.77;;;23.50;30.10;;;;;;5024942;28;20175;-49
2021/04/10 11:34:59;;;;;;;2.00;1.08;;;23.40;30.00;;;;;;5046020;28;20059;-49
2021/04/10 11:37:28;;;;;;;2.70;1.00;;;23.40;30.10;;;;;;5040239;28;20558;-47
2021/04/10 11:40:08;;;;;;;1.67;0.90;;;23.40;30.10;;;;;;5043447;28;20093;-48
2021/04/10 11:42:46;;;;;;;3.28;1.13;;;23.50;30.10;;;;;;5046698;28;20028;-44
2021/04/10 11:45:35;;;;;;;2.88;0.95;;;23.40;30.10;;;;;;5031085;28;20048;-50
2021/04/10 11:48:12;;;;;;;2.47;0.73;;;23.40;30.10;;;;;;5040911;28;20077;-44
2021/04/10 11:50:48;;;;;;;1.98;0.70;;;23.50;30.20;;;;;;5052650;28;20033;-43
2021/04/10 11:53:21;;;;;;;1.25;0.77;;;23.50;30.10;;;;;;5056221;28;20127;-49
2021/04/10 11:55:48;;;;;;;1.10;0.63;;;23.60;30.00;;;;;;5056403;28;20071;-49
2021/04/10 11:58:14;;;;;;;2.05;0.70;;;23.60;29.90;;;;;;5044405;28;20438;-47
2021/04/10 12:00:41;;;;;;;1.63;0.70;;;23.70;29.90;;;;;;5024675;28;20124;-52
2021/04/10 12:03:14;;;;;;;1.23;0.90;;;23.70;29.90;;;;;;5055323;28;20040;-45
2021/04/10 12:05:43;;;;;;;2.85;0.98;;;23.70;29.90;;;;;;5051098;28;21664;-52
2021/04/10 12:08:18;;;;;;;1.92;1.00;;;23.70;30.00;;;;;;5049613;28;20021;-51
2021/04/10 12:10:51;;;;;;;1.08;0.70;;;23.70;30.20;;;;;;5052022;28;20057;-47
2021/04/10 12:13:18;;;;;;;1.38;0.65;;;23.70;30.20;;;;;;5050853;28;20029;-50
2021/04/10 12:15:48;;;;;;;2.42;0.88;;;23.80;30.20;;;;;;5045759;28;20086;-54
2021/04/10 12:18:16;;;;;;;1.17;0.70;;;23.80;30.10;;;;;;5036502;28;20399;-50
2021/04/10 12:20:41;;;;;;;1.00;0.60;;;23.90;30.70;;;;;;5005736;28;20044;-53
2021/04/10 12:23:07;;;;;;;1.65;0.80;;;24.00;30.00;;;;;;5040371;28;20430;-46
2021/04/10 12:25:34;;;;;;;1.95;1.33;;;24.00;29.90;;;;;;5045577;28;20048;-52
2021/04/10 12:28:01;;;;;;;3.85;2.63;;;24.00;29.80;;;;;;5041738;28;20037;-49
2021/04/10 12:30:27;;;;;;;4.95;3.38;;;24.00;29.80;;;;;;5043134;28;20191;-51
2021/04/10 12:32:53;;;;;;;6.18;4.85;;;24.00;29.80;;;;;;5041756;28;20037;-51
2021/04/10 12:35:18;;;;;;;7.68;5.97;;;24.00;29.80;;;;;;5042284;28;20065;-53
2021/04/10 12:37:44;;;;;;;8.80;5.75;;;24.00;29.80;;;;;;5021403;28;20323;-52
2021/04/10 12:40:10;;;;;;;7.72;5.22;;;24.00;29.80;;;;;;5035461;28;20029;-54
2021/04/10 12:42:37;;;;;;;6.30;5.20;;;24.00;29.80;;;;;;5035170;28;20030;-50
2021/04/10 12:45:08;;;;;;;4.75;3.83;;;24.00;29.70;;;;;;5035363;28;20055;-52
2021/04/10 12:47:34;;;;;;;5.50;4.10;;;24.10;29.70;;;;;;5034648;28;20485;-49
2021/04/10 12:50:00;;;;;;;5.40;4.10;;;24.10;29.60;;;;;;5034863;28;20461;-55
2021/04/10 12:52:27;;;;;;;5.13;3.72;;;24.10;29.60;;;;;;5035199;28;20033;-50
2021/04/10 12:54:53;;;;;;;5.10;3.75;;;24.10;29.50;;;;;;5035198;28;20090;-52
2021/04/10 12:57:19;;;;;;;5.38;3.58;;;24.10;29.50;;;;;;5035281;28;20030;-49
2021/04/10 12:59:45;;;;;;;4.25;3.08;;;24.10;29.40;;;;;;5033299;28;20106;-48
2021/04/10 13:02:10;;;;;;;5.68;3.47;;;24.10;29.30;;;;;;5054590;28;20121;-49